createdAt,value
2018-06-13T00:02:04.748Z,67.9
2018-06-13T00:07:04.891Z,67.7
2018-06-13T00:12:04.721Z,67.6
2018-06-13T00:17:04.751Z,67.6
2018-06-13T00:22:04.643Z,67.8
2018-06-13T00:27:05.129Z,68.1
2018-06-13T00:32:05.369Z,68.1
2018-06-13T00:37:04.905Z,68.1
2018-06-13T00:42:04.345Z,68.3
2018-06-13T00:47:05.147Z,68.3
2018-06-13T00:52:04.592Z,68.6
2018-06-13T00:57:04.564Z,68.3
2018-06-13T01:02:05.091Z,68.4
2018-06-13T01:07:05.451Z,68.4
2018-06-13T01:12:04.937Z,68.2
2018-06-13T01:17:04.971Z,68.5
2018-06-13T01:22:04.682Z,68.5
2018-06-13T01:27:04.492Z,68.4
2018-06-13T01:32:04.461Z,68.8
2018-06-13T01:37:04.687Z,68.5
2018-06-13T01:42:04.852Z,68.4
2018-06-13T01:47:04.406Z,68.6
2018-06-13T01:52:04.198Z,69.0
2018-06-13T01:57:04.795Z,68.7
2018-06-13T02:02:04.771Z,68.8
2018-06-13T02:07:04.602Z,69.0
2018-06-13T02:12:04.386Z,68.9
2018-06-13T02:17:05.190Z,68.7
2018-06-13T02:22:05.222Z,68.6
2018-06-13T02:27:04.732Z,68.7
2018-06-13T02:32:04.601Z,68.5
2018-06-13T02:37:04.540Z,68.3
2018-06-13T02:42:04.615Z,68.3
2018-06-13T02:47:05.978Z,68.8
2018-06-13T02:52:04.408Z,68.8
2018-06-13T02:57:04.877Z,68.5
2018-06-13T03:02:14.269Z,68.4
2018-06-13T03:07:04.930Z,68.7
2018-06-13T03:12:04.496Z,68.6
2018-06-13T03:17:25.906Z,68.9
2018-06-13T03:22:04.845Z,69.1
2018-06-13T03:27:05.170Z,69.0
2018-06-13T03:32:21.329Z,69.0
2018-06-13T03:37:04.888Z,68.9
2018-06-13T03:42:04.269Z,69.1
2018-06-13T03:47:20.929Z,69.0
2018-06-13T03:52:04.193Z,68.9
2018-06-13T03:57:04.596Z,69.1
2018-06-13T04:02:22.048Z,69.3
2018-06-13T04:07:04.454Z,68.8
2018-06-13T04:12:04.312Z,68.9
2018-06-13T04:17:21.142Z,68.9
2018-06-13T04:22:05.093Z,68.7
2018-06-13T04:27:04.869Z,68.6
2018-06-13T04:32:21.804Z,68.5
2018-06-13T04:37:04.749Z,68.3
2018-06-13T04:42:04.986Z,68.2
2018-06-13T04:47:21.084Z,68.2
2018-06-13T04:52:04.156Z,68.1
2018-06-13T04:57:04.779Z,68.1
2018-06-13T05:02:20.415Z,68.0
2018-06-13T05:07:05.246Z,68.1
2018-06-13T05:12:04.341Z,68.0
2018-06-13T05:17:21.419Z,68.3
2018-06-13T05:22:04.489Z,67.8
2018-06-13T05:27:04.967Z,67.8
2018-06-13T05:32:21.811Z,67.8
2018-06-13T05:37:04.671Z,67.5
2018-06-13T05:42:04.816Z,67.5
2018-06-13T05:47:21.467Z,67.8
2018-06-13T05:52:04.875Z,67.7
2018-06-13T05:57:04.548Z,67.9
2018-06-13T06:02:21.565Z,67.9
2018-06-13T06:07:04.930Z,68.0
2018-06-13T06:12:04.148Z,67.7
2018-06-13T06:17:21.467Z,67.8
2018-06-13T06:22:04.888Z,67.6
2018-06-13T06:27:04.669Z,67.8
2018-06-13T06:32:21.125Z,67.5
2018-06-13T06:37:05.159Z,67.7
2018-06-13T06:42:04.722Z,67.6
2018-06-13T06:47:18.172Z,67.9
2018-06-13T06:52:04.474Z,67.9
2018-06-13T06:57:05.096Z,68.1
2018-06-13T07:02:22.531Z,67.9
2018-06-13T07:07:05.072Z,67.5
2018-06-13T07:12:04.481Z,67.5
2018-06-13T07:17:21.945Z,67.3
2018-06-13T07:22:05.337Z,67.2
2018-06-13T07:27:04.835Z,67.8
2018-06-13T07:32:20.060Z,67.7
2018-06-13T07:37:04.280Z,67.3
2018-06-13T07:42:05.044Z,66.8
2018-06-13T07:47:21.830Z,66.2
2018-06-13T07:52:04.956Z,65.7
2018-06-13T07:57:05.031Z,65.3
2018-06-13T08:02:22.400Z,65.3
2018-06-13T08:07:04.610Z,65.2
2018-06-13T08:12:04.264Z,63.8
2018-06-13T08:17:22.371Z,63.7
2018-06-13T08:22:05.037Z,64.2
2018-06-13T08:27:04.803Z,64.1
2018-06-13T08:32:21.729Z,64.2
2018-06-13T08:37:04.351Z,64.0
2018-06-13T08:42:04.898Z,63.6
2018-06-13T08:47:20.892Z,64.3
2018-06-13T08:52:04.633Z,64.2
2018-06-13T08:57:04.227Z,64.2
2018-06-13T09:02:21.732Z,64.0
2018-06-13T09:07:04.549Z,64.5
2018-06-13T09:12:05.233Z,66.3
2018-06-13T09:17:21.313Z,66.2
2018-06-13T09:22:04.746Z,66.5
2018-06-13T09:27:05.226Z,66.6
2018-06-13T09:32:19.581Z,66.8
2018-06-13T09:37:04.962Z,66.8
2018-06-13T09:42:05.160Z,66.2
2018-06-13T09:47:23.458Z,65.4
2018-06-13T09:52:04.448Z,64.2
2018-06-13T09:57:04.290Z,63.6
2018-06-13T10:02:22.171Z,63.6
2018-06-13T10:12:04.567Z,63.1
2018-06-13T10:17:20.091Z,63.2
2018-06-13T10:22:04.602Z,63.1
2018-06-13T10:27:04.183Z,62.5
2018-06-13T10:32:23.737Z,62.5
2018-06-13T10:37:05.166Z,63.0
2018-06-13T10:42:04.630Z,62.8
2018-06-13T10:47:19.898Z,63.2
2018-06-13T10:52:04.836Z,63.9
2018-06-13T10:57:04.604Z,63.9
2018-06-13T11:02:20.705Z,64.0
2018-06-13T11:07:04.342Z,63.6
2018-06-13T11:12:04.996Z,63.1
2018-06-13T11:17:18.516Z,62.8
2018-06-13T11:22:04.525Z,62.9
2018-06-13T11:27:05.089Z,63.5
2018-06-13T11:32:21.914Z,63.1
2018-06-13T11:37:04.695Z,62.6
2018-06-13T11:42:04.261Z,62.1
2018-06-13T11:47:19.759Z,62.1
2018-06-13T11:52:04.755Z,62.3
2018-06-13T11:57:04.744Z,62.4
2018-06-13T12:02:21.483Z,63.1
2018-06-13T12:07:05.115Z,64.2
2018-06-13T12:12:04.408Z,64.2
2018-06-13T12:17:19.320Z,64.4
2018-06-13T12:22:04.722Z,64.4
2018-06-13T12:27:05.143Z,64.1
2018-06-13T12:32:19.211Z,64.3
2018-06-13T12:37:04.518Z,64.6
2018-06-13T12:42:05.091Z,64.2
2018-06-13T12:47:20.439Z,64.0
2018-06-13T12:52:04.143Z,63.6
2018-06-13T12:57:04.608Z,62.4
2018-06-13T13:02:17.094Z,62.5
2018-06-13T13:07:05.192Z,62.4
2018-06-13T13:12:04.904Z,61.7
2018-06-13T13:17:24.325Z,61.6
2018-06-13T13:22:04.730Z,61.4
2018-06-13T13:27:05.224Z,60.3
2018-06-13T13:32:21.890Z,60.3
2018-06-13T13:37:04.947Z,60.2
2018-06-13T13:42:04.223Z,59.7
2018-06-13T13:47:21.284Z,59.2
2018-06-13T13:52:04.865Z,59.2
2018-06-13T13:57:04.622Z,59.3
2018-06-13T14:02:21.777Z,60.5
2018-06-13T14:07:05.285Z,60.5
2018-06-13T14:12:04.730Z,62.0
2018-06-13T14:17:19.800Z,63.6
2018-06-13T14:22:05.020Z,63.6
2018-06-13T14:27:04.426Z,64.1
2018-06-13T14:32:20.067Z,64.0
2018-06-13T14:37:04.931Z,63.6
2018-06-13T14:42:04.349Z,63.1
2018-06-13T14:47:21.245Z,62.5
2018-06-13T14:52:04.614Z,61.4
2018-06-13T14:57:05.150Z,60.9
2018-06-13T15:02:23.635Z,60.5
2018-06-13T15:07:04.838Z,59.3
2018-06-13T15:12:04.506Z,59.2
2018-06-13T15:17:18.504Z,59.3
2018-06-13T15:22:04.973Z,60.4
2018-06-13T15:27:04.343Z,61.8
2018-06-13T15:32:11.561Z,62.3
2018-06-13T15:37:04.470Z,62.2
2018-06-13T15:42:05.109Z,62.2
2018-06-13T15:47:21.191Z,62.0
2018-06-13T15:52:04.549Z,61.9
2018-06-13T15:57:04.236Z,62.4
2018-06-13T16:02:22.653Z,62.2
2018-06-13T16:07:05.171Z,62.2
2018-06-13T16:12:04.849Z,62.1
2018-06-13T16:17:22.679Z,62.1
2018-06-13T16:22:04.534Z,62.2
2018-06-13T16:27:04.316Z,62.1
2018-06-13T16:32:22.256Z,62.4
2018-06-13T16:37:05.074Z,62.6
2018-06-13T16:42:05.183Z,62.3
2018-06-13T16:47:22.825Z,62.2
2018-06-13T16:52:05.037Z,62.6
2018-06-13T16:57:05.009Z,62.5
2018-06-13T17:02:22.001Z,62.6
2018-06-13T17:07:05.564Z,62.8
2018-06-13T17:12:04.544Z,63.1
2018-06-13T17:17:21.414Z,62.9
2018-06-13T17:22:04.354Z,62.8
2018-06-13T17:27:04.732Z,62.9
2018-06-13T17:32:21.742Z,63.0
2018-06-13T17:37:05.133Z,63.2
2018-06-13T17:42:04.308Z,63.1
2018-06-13T17:47:22.113Z,63.4
2018-06-13T17:52:05.326Z,63.5
2018-06-13T17:57:04.786Z,63.7
2018-06-13T18:02:20.991Z,63.8
2018-06-13T18:07:04.509Z,63.8
2018-06-13T18:12:04.410Z,63.9
2018-06-13T18:17:21.860Z,64.1
2018-06-13T18:22:04.653Z,64.1
2018-06-13T18:27:05.089Z,64.2
2018-06-13T18:32:20.594Z,64.2
2018-06-13T18:37:04.591Z,64.4
2018-06-13T18:42:04.297Z,64.1
2018-06-13T18:47:21.444Z,64.1
2018-06-13T18:52:04.950Z,64.1
2018-06-13T18:57:04.592Z,64.3
2018-06-13T19:02:23.461Z,64.5
2018-06-13T19:07:05.222Z,64.6
2018-06-13T19:12:04.317Z,64.6
2018-06-13T19:17:25.417Z,64.6
2018-06-13T19:22:05.083Z,64.7
2018-06-13T19:27:05.221Z,64.7
2018-06-13T19:32:24.323Z,64.8
2018-06-13T19:37:04.912Z,64.8
2018-06-13T19:42:05.013Z,64.8
2018-06-13T19:47:09.754Z,64.8
2018-06-13T19:52:04.524Z,64.7
2018-06-13T19:57:04.537Z,64.8
2018-06-13T20:02:06.010Z,64.9
2018-06-13T20:07:04.841Z,64.8
2018-06-13T20:12:05.122Z,64.8
2018-06-13T20:17:04.938Z,64.7
2018-06-13T20:22:04.791Z,64.8
2018-06-13T20:27:05.130Z,64.8
2018-06-13T20:32:04.511Z,64.9
2018-06-13T20:37:04.866Z,65.0
2018-06-13T20:42:04.303Z,65.2
2018-06-13T20:47:04.529Z,65.0
2018-06-13T20:52:04.845Z,65.2
2018-06-13T20:57:05.000Z,65.2
2018-06-13T21:02:05.208Z,65.2
2018-06-13T21:07:04.444Z,65.2
2018-06-13T21:12:04.826Z,65.1
2018-06-13T21:17:05.339Z,65.2
2018-06-13T21:22:04.606Z,65.2
2018-06-13T21:27:04.766Z,65.2
2018-06-13T21:32:05.399Z,65.2
2018-06-13T21:37:04.404Z,65.3
2018-06-13T21:42:04.603Z,65.3
2018-06-13T21:47:04.964Z,65.1
2018-06-13T21:52:04.263Z,65.1
2018-06-13T21:57:04.312Z,65.3
2018-06-13T22:02:04.718Z,65.3
2018-06-13T22:07:04.982Z,65.2
2018-06-13T22:12:04.640Z,65.2
2018-06-13T22:22:23.184Z,64.8
2018-06-13T22:27:22.651Z,65.2
2018-06-13T22:32:22.968Z,65.3
2018-06-13T22:37:22.782Z,65.4
2018-06-13T22:42:22.854Z,65.5
2018-06-13T22:47:23.056Z,65.4
2018-06-13T22:52:22.923Z,65.3
2018-06-13T22:57:22.738Z,65.4
2018-06-13T23:02:22.678Z,65.4
2018-06-13T23:07:23.091Z,65.4
2018-06-13T23:12:04.247Z,65.3
2018-06-13T23:17:05.257Z,65.4
2018-06-13T23:22:04.570Z,65.5
2018-06-13T23:27:05.017Z,65.4
2018-06-13T23:32:05.035Z,65.4
2018-06-13T23:37:04.387Z,65.5
2018-06-13T23:42:04.105Z,65.4
2018-06-13T23:47:04.964Z,65.4
2018-06-13T23:52:04.541Z,65.4
2018-06-13T23:57:04.275Z,65.4
